createdAt,value
2023-02-19T00:01:48.904Z,99.90
2023-02-19T00:04:19.886Z,99.90
2023-02-19T00:06:48.627Z,99.90
2023-02-19T00:09:19.104Z,99.90
2023-02-19T00:11:47.860Z,99.90
2023-02-19T00:14:18.362Z,99.90
2023-02-19T00:16:46.447Z,99.90
2023-02-19T00:19:16.484Z,99.90
2023-02-19T00:21:45.891Z,99.90
2023-02-19T00:24:15.784Z,99.90
2023-02-19T00:26:45.513Z,99.90
2023-02-19T00:29:15.724Z,99.90
2023-02-19T00:31:44.771Z,99.90
2023-02-19T00:34:13.656Z,99.90
2023-02-19T00:36:42.812Z,99.90
2023-02-19T00:39:16.074Z,99.90
2023-02-19T00:41:44.428Z,99.90
2023-02-19T00:44:13.305Z,99.90
2023-02-19T00:46:43.602Z,89.60
2023-02-19T00:49:19.899Z,46.10
2023-02-19T00:51:48.654Z,18.80
2023-02-19T00:54:18.578Z,1.00
2023-02-19T00:56:46.726Z,1.00
2023-02-19T00:59:15.085Z,1.00
2023-02-19T01:01:44.432Z,1.00
2023-02-19T01:04:13.174Z,1.00
2023-02-19T01:06:41.317Z,1.00
2023-02-19T01:09:09.465Z,1.00
2023-02-19T01:11:38.885Z,1.00
2023-02-19T01:14:06.922Z,1.00
2023-02-19T01:16:34.937Z,1.00
2023-02-19T01:19:03.003Z,1.00
2023-02-19T01:21:31.530Z,1.00
2023-02-19T01:24:00.313Z,1.00
2023-02-19T01:26:34.502Z,1.00
2023-02-19T01:29:04.675Z,1.00
2023-02-19T01:31:33.281Z,1.00
2023-02-19T01:34:03.205Z,1.00
2023-02-19T01:36:33.644Z,1.00
2023-02-19T01:39:03.993Z,1.00
2023-02-19T01:41:33.326Z,1.00
2023-02-19T01:44:05.272Z,1.00
2023-02-19T01:46:34.324Z,1.00
2023-02-19T01:49:06.650Z,1.00
2023-02-19T01:51:37.599Z,1.00
2023-02-19T01:54:08.202Z,1.00
2023-02-19T01:56:39.442Z,1.00
2023-02-19T01:59:09.391Z,1.00
2023-02-19T02:01:39.583Z,1.00
2023-02-19T02:04:10.972Z,1.00
2023-02-19T02:06:45.325Z,1.00
2023-02-19T02:09:31.512Z,1.00
2023-02-19T02:11:59.620Z,1.00
2023-02-19T02:14:32.200Z,1.00
2023-02-19T02:17:10.328Z,1.00
2023-02-19T02:20:03.565Z,1.00
2023-02-19T02:22:37.137Z,1.00
2023-02-19T02:25:34.654Z,1.00
2023-02-19T02:28:18.209Z,1.00
2023-02-19T02:30:51.335Z,1.00
2023-02-19T02:33:28.460Z,1.00
2023-02-19T02:36:00.140Z,1.00
2023-02-19T02:38:31.930Z,1.00
2023-02-19T02:41:00.488Z,1.00
2023-02-19T02:43:28.570Z,1.00
2023-02-19T02:45:58.003Z,1.00
2023-02-19T02:48:34.327Z,1.00
2023-02-19T02:51:09.007Z,1.00
2023-02-19T02:53:59.928Z,1.00
2023-02-19T02:56:28.329Z,1.00
2023-02-19T02:58:57.810Z,1.00
2023-02-19T03:01:48.806Z,1.00
2023-02-19T03:04:24.782Z,1.00
2023-02-19T03:06:54.899Z,1.00
2023-02-19T03:09:30.225Z,1.00
2023-02-19T03:12:31.934Z,1.00
2023-02-19T03:15:23.357Z,1.00
2023-02-19T03:18:15.644Z,1.00
2023-02-19T03:20:47.559Z,1.00
2023-02-19T03:23:17.183Z,1.00
2023-02-19T03:25:59.660Z,1.00
2023-02-19T03:28:47.164Z,1.00
2023-02-19T03:31:19.512Z,1.00
2023-02-19T03:33:51.512Z,1.00
2023-02-19T03:36:26.650Z,1.00
2023-02-19T03:39:00.986Z,1.00
2023-02-19T03:41:36.332Z,1.00
2023-02-19T03:44:10.777Z,1.00
2023-02-19T03:46:48.198Z,1.00
2023-02-19T03:49:23.904Z,1.00
2023-02-19T03:51:59.012Z,1.00
2023-02-19T03:54:35.942Z,1.00
2023-02-19T03:57:09.653Z,1.00
2023-02-19T03:59:44.766Z,1.00
2023-02-19T04:02:15.930Z,1.00
2023-02-19T04:04:50.942Z,1.00
2023-02-19T04:07:19.090Z,1.00
2023-02-19T04:09:50.602Z,1.00
2023-02-19T04:12:20.225Z,1.00
2023-02-19T04:14:53.371Z,1.00
2023-02-19T04:17:26.038Z,1.00
2023-02-19T04:19:57.479Z,1.00
2023-02-19T04:22:26.478Z,1.00
2023-02-19T04:24:56.430Z,1.00
2023-02-19T04:27:24.614Z,1.00
2023-02-19T04:29:52.596Z,1.00
2023-02-19T04:32:20.865Z,1.00
2023-02-19T04:34:48.883Z,1.00
2023-02-19T04:37:18.339Z,1.00
2023-02-19T04:39:46.512Z,1.00
2023-02-19T04:42:14.515Z,1.00
2023-02-19T04:44:42.529Z,1.00
2023-02-19T04:47:10.509Z,1.00
2023-02-19T04:49:38.571Z,1.00
2023-02-19T04:52:06.606Z,1.00
2023-02-19T04:54:35.972Z,1.00
2023-02-19T04:57:04.360Z,1.00
2023-02-19T04:59:32.550Z,1.00
2023-02-19T05:02:00.602Z,1.00
2023-02-19T05:04:28.604Z,1.00
2023-02-19T05:06:56.658Z,1.00
2023-02-19T05:09:24.798Z,1.00
2023-02-19T05:11:54.220Z,1.00
2023-02-19T05:14:22.275Z,1.00
2023-02-19T05:16:50.323Z,1.00
2023-02-19T05:19:18.358Z,1.00
2023-02-19T05:21:46.358Z,1.00
2023-02-19T05:24:14.378Z,1.00
2023-02-19T05:26:45.080Z,1.00
2023-02-19T05:29:14.780Z,1.00
2023-02-19T05:31:42.973Z,1.00
2023-02-19T05:34:11.071Z,1.00
2023-02-19T05:36:39.996Z,1.00
2023-02-19T05:39:09.499Z,1.00
2023-02-19T05:41:37.549Z,6.10
2023-02-19T05:44:05.525Z,31.60
2023-02-19T05:46:35.204Z,56.20
2023-02-19T05:49:04.493Z,86.50
2023-02-19T05:51:32.519Z,99.90
2023-02-19T05:54:00.533Z,99.90
2023-02-19T05:56:32.928Z,99.90
2023-02-19T05:59:03.894Z,99.90
2023-02-19T06:01:32.265Z,99.90
2023-02-19T06:04:01.834Z,99.90
2023-02-19T06:06:29.884Z,99.90
2023-02-19T06:08:57.954Z,99.90
2023-02-19T06:11:26.215Z,99.90
2023-02-19T06:13:54.263Z,99.90
2023-02-19T06:16:22.953Z,99.90
2023-02-19T06:18:51.125Z,99.90
2023-02-19T06:21:20.919Z,99.90
2023-02-19T06:23:49.073Z,99.90
2023-02-19T06:26:19.472Z,99.90
2023-02-19T06:28:49.059Z,99.90
2023-02-19T06:31:17.693Z,99.90
2023-02-19T06:33:45.984Z,99.90
2023-02-19T06:36:16.210Z,99.90
2023-02-19T06:38:46.210Z,99.90
2023-02-19T06:41:14.627Z,99.90
2023-02-19T06:43:43.212Z,99.90
2023-02-19T06:46:12.993Z,99.90
2023-02-19T06:48:42.468Z,99.90
2023-02-19T06:51:13.319Z,99.90
2023-02-19T06:53:41.357Z,99.90
2023-02-19T06:56:25.194Z,99.90
2023-02-19T06:58:54.007Z,99.90
2023-02-19T07:01:22.480Z,99.90
2023-02-19T07:03:52.610Z,99.90
2023-02-19T07:06:21.064Z,99.90
2023-02-19T07:08:49.357Z,99.90
2023-02-19T07:11:19.400Z,99.90
2023-02-19T07:13:47.659Z,99.90
2023-02-19T07:16:17.925Z,99.90
2023-02-19T07:18:46.042Z,99.90
2023-02-19T07:21:16.285Z,99.90
2023-02-19T07:23:45.406Z,99.90
2023-02-19T07:26:15.106Z,99.90
2023-02-19T07:28:45.403Z,99.90
2023-02-19T07:31:14.778Z,99.90
2023-02-19T07:33:44.391Z,94.80
2023-02-19T07:36:12.873Z,75.50
2023-02-19T07:38:40.971Z,76.60
2023-02-19T07:41:09.710Z,98.90
2023-02-19T07:43:39.414Z,99.90
2023-02-19T07:46:10.760Z,99.90
2023-02-19T07:48:39.806Z,99.90
2023-02-19T07:51:09.843Z,99.90
2023-02-19T07:53:38.114Z,99.90
2023-02-19T07:56:08.225Z,99.90
2023-02-19T07:58:36.664Z,99.90
2023-02-19T08:01:11.378Z,16.90
2023-02-19T08:03:39.264Z,1.00
2023-02-19T08:06:08.388Z,1.00
2023-02-19T08:08:36.394Z,1.00
2023-02-19T08:11:23.389Z,1.00
2023-02-19T08:13:52.598Z,1.00
2023-02-19T08:16:36.701Z,1.00
2023-02-19T08:19:09.070Z,1.00
2023-02-19T08:21:37.106Z,1.00
2023-02-19T08:24:05.758Z,1.00
2023-02-19T08:26:34.212Z,1.00
2023-02-19T08:29:02.312Z,1.00
2023-02-19T08:31:31.986Z,1.00
2023-02-19T08:34:00.131Z,1.00
2023-02-19T08:36:28.186Z,1.00
2023-02-19T08:38:56.214Z,1.00
2023-02-19T08:41:24.324Z,1.00
2023-02-19T08:43:52.449Z,1.00
2023-02-19T08:46:21.295Z,1.00
2023-02-19T08:48:51.096Z,1.00
2023-02-19T08:51:19.140Z,1.00
2023-02-19T08:53:47.844Z,1.00
2023-02-19T08:56:17.542Z,1.00
2023-02-19T08:58:46.400Z,1.00
2023-02-19T09:01:16.672Z,1.00
2023-02-19T09:03:45.046Z,1.00
2023-02-19T09:06:18.136Z,1.00
2023-02-19T09:08:46.551Z,1.00
2023-02-19T09:11:14.824Z,1.00
2023-02-19T09:13:43.221Z,1.00
2023-02-19T09:16:11.953Z,1.00
2023-02-19T09:18:40.384Z,1.00
2023-02-19T09:21:08.548Z,1.00
2023-02-19T09:23:38.413Z,1.00
2023-02-19T09:26:10.088Z,1.00
2023-02-19T09:28:41.649Z,1.00
2023-02-19T09:31:12.685Z,99.90
2023-02-19T09:33:44.384Z,1.00
2023-02-19T09:36:13.026Z,1.00
2023-02-19T09:38:42.767Z,99.90
2023-02-19T09:41:18.343Z,99.90
2023-02-19T09:43:47.180Z,99.90
2023-02-19T09:46:26.342Z,99.90
2023-02-19T09:48:56.889Z,99.90
2023-02-19T09:51:29.343Z,99.90
2023-02-19T09:53:58.933Z,99.90
2023-02-19T09:56:28.060Z,99.90
2023-02-19T09:58:59.094Z,99.90
2023-02-19T10:01:32.251Z,84.00
2023-02-19T10:04:00.406Z,58.10
2023-02-19T10:06:30.341Z,41.40
2023-02-19T10:09:14.755Z,56.90
2023-02-19T10:11:43.418Z,73.20
2023-02-19T10:14:18.399Z,99.80
2023-02-19T10:16:49.294Z,97.90
2023-02-19T10:19:18.170Z,96.60
2023-02-19T10:21:46.740Z,96.20
2023-02-19T10:24:22.405Z,99.90
2023-02-19T10:26:51.885Z,99.90
2023-02-19T10:29:21.675Z,99.90
2023-02-19T10:31:49.886Z,99.90
2023-02-19T10:34:24.353Z,99.90
2023-02-19T10:36:53.551Z,99.90
2023-02-19T10:39:42.224Z,99.90
2023-02-19T10:42:17.213Z,99.90
2023-02-19T10:44:48.259Z,99.90
2023-02-19T10:47:22.455Z,99.90
2023-02-19T10:49:52.262Z,99.90
2023-02-19T10:52:24.304Z,99.90
2023-02-19T10:54:56.362Z,96.30
2023-02-19T10:57:35.164Z,84.30
2023-02-19T11:00:19.948Z,60.80
2023-02-19T11:02:47.942Z,57.00
2023-02-19T11:05:19.940Z,90.60
2023-02-19T11:07:50.929Z,99.90
2023-02-19T11:10:29.332Z,99.90
2023-02-19T11:13:00.189Z,99.90
2023-02-19T11:15:30.633Z,99.90
2023-02-19T11:18:01.161Z,99.90
2023-02-19T11:20:31.978Z,99.90
2023-02-19T11:23:02.770Z,99.90
2023-02-19T11:25:32.726Z,99.90
2023-02-19T11:28:07.370Z,99.90
2023-02-19T11:30:39.913Z,99.90
2023-02-19T11:33:31.054Z,87.20
2023-02-19T11:36:25.504Z,99.90
2023-02-19T11:38:53.687Z,95.90
2023-02-19T11:41:39.991Z,93.20
2023-02-19T11:44:19.263Z,99.20
2023-02-19T11:46:56.149Z,99.90
2023-02-19T11:49:40.384Z,99.90
2023-02-19T11:52:27.283Z,99.90
2023-02-19T11:54:59.212Z,99.90
2023-02-19T11:57:44.740Z,99.90
2023-02-19T12:00:38.243Z,99.90
2023-02-19T12:03:35.757Z,99.90
2023-02-19T12:06:26.754Z,99.90
2023-02-19T12:09:08.814Z,99.90
2023-02-19T12:11:59.608Z,99.90
2023-02-19T12:14:56.386Z,99.90
2023-02-19T12:17:49.291Z,99.90
2023-02-19T12:20:27.885Z,99.90
2023-02-19T12:23:13.119Z,99.90
2023-02-19T12:25:54.784Z,99.90
2023-02-19T12:28:34.841Z,99.90
2023-02-19T12:31:35.750Z,99.90
2023-02-19T12:34:36.833Z,99.90
2023-02-19T12:37:16.290Z,99.90
2023-02-19T12:39:53.261Z,56.20
2023-02-19T12:42:37.548Z,41.00
2023-02-19T12:45:12.502Z,13.90
2023-02-19T12:47:46.855Z,45.10
2023-02-19T12:50:21.137Z,99.90
2023-02-19T12:52:53.019Z,99.90
2023-02-19T12:55:25.890Z,99.90
2023-02-19T12:57:55.518Z,99.90
2023-02-19T13:00:36.670Z,99.90
2023-02-19T13:03:14.197Z,99.90
2023-02-19T13:05:49.182Z,99.90
2023-02-19T13:08:24.979Z,99.90
2023-02-19T13:10:57.615Z,99.90
2023-02-19T13:13:31.134Z,99.90
2023-02-19T13:16:04.190Z,99.90
2023-02-19T13:18:41.035Z,99.90
2023-02-19T13:21:10.416Z,99.90
2023-02-19T13:24:02.734Z,99.90
2023-02-19T13:26:46.684Z,99.90
2023-02-19T13:29:29.166Z,99.90
2023-02-19T13:32:19.233Z,99.90
2023-02-19T13:35:00.586Z,99.90
2023-02-19T13:37:32.777Z,99.90
2023-02-19T13:40:03.831Z,99.90
2023-02-19T13:42:35.004Z,99.90
2023-02-19T13:45:04.802Z,99.90
2023-02-19T13:48:01.093Z,99.90
2023-02-19T13:50:32.222Z,99.90
2023-02-19T13:53:01.267Z,99.90
2023-02-19T13:55:52.489Z,99.90
2023-02-19T13:58:52.919Z,99.90
2023-02-19T14:01:41.309Z,99.90
2023-02-19T14:04:17.347Z,99.90
2023-02-19T14:07:18.466Z,92.90
2023-02-19T14:09:48.264Z,98.30
2023-02-19T14:12:22.369Z,96.70
2023-02-19T14:14:51.526Z,99.90
2023-02-19T14:17:38.305Z,91.10
2023-02-19T14:20:41.854Z,99.90
2023-02-19T14:23:17.894Z,99.90
2023-02-19T14:26:00.211Z,99.90
2023-02-19T14:28:36.187Z,99.90
2023-02-19T14:31:22.103Z,99.90
2023-02-19T14:33:52.833Z,99.90
2023-02-19T14:36:29.686Z,99.90
2023-02-19T14:39:00.178Z,99.90
2023-02-19T14:41:33.736Z,99.90
2023-02-19T14:44:03.253Z,99.90
2023-02-19T14:46:34.138Z,99.90
2023-02-19T14:49:08.291Z,99.90
2023-02-19T14:51:40.179Z,99.90
2023-02-19T14:54:15.866Z,99.90
2023-02-19T14:56:47.831Z,57.30
2023-02-19T14:59:25.862Z,42.60
2023-02-19T15:01:59.540Z,51.40
2023-02-19T15:04:31.301Z,4.30
2023-02-19T15:07:03.409Z,1.00
2023-02-19T15:09:37.572Z,1.00
2023-02-19T15:12:07.807Z,1.00
2023-02-19T15:14:36.192Z,1.00
2023-02-19T15:17:06.544Z,1.00
2023-02-19T15:19:39.571Z,1.00
2023-02-19T15:22:08.472Z,1.00
2023-02-19T15:24:37.055Z,1.00
2023-02-19T15:27:06.856Z,1.00
2023-02-19T15:29:34.868Z,1.00
2023-02-19T15:32:03.364Z,1.00
2023-02-19T15:34:33.528Z,1.00
2023-02-19T15:37:04.952Z,1.00
2023-02-19T15:39:36.902Z,1.00
2023-02-19T15:42:08.876Z,1.00
2023-02-19T15:44:45.273Z,1.00
2023-02-19T15:47:23.824Z,1.00
2023-02-19T15:49:58.688Z,1.00
2023-02-19T15:52:34.226Z,1.00
2023-02-19T15:55:09.694Z,1.00
2023-02-19T15:57:45.154Z,1.00
2023-02-19T16:00:17.972Z,1.00
2023-02-19T16:02:47.256Z,1.00
2023-02-19T16:05:18.499Z,1.00
2023-02-19T16:07:46.518Z,1.00
2023-02-19T16:10:23.874Z,3.50
2023-02-19T16:13:01.129Z,19.60
2023-02-19T16:15:30.954Z,3.80
2023-02-19T16:18:00.567Z,51.70
2023-02-19T16:20:31.352Z,85.20
2023-02-19T16:23:02.772Z,99.60
2023-02-19T16:25:37.394Z,99.90
2023-02-19T16:28:13.927Z,99.90
2023-02-19T16:30:42.706Z,99.90
2023-02-19T16:33:34.831Z,99.90
2023-02-19T16:36:26.283Z,99.90
2023-02-19T16:39:24.956Z,99.90
2023-02-19T16:42:17.253Z,92.60
2023-02-19T16:44:48.348Z,47.20
2023-02-19T16:47:28.381Z,53.20
2023-02-19T16:49:58.213Z,41.40
2023-02-19T16:52:26.333Z,67.20
2023-02-19T16:54:54.591Z,44.10
2023-02-19T16:57:22.726Z,29.50
2023-02-19T16:59:52.182Z,26.50
2023-02-19T17:02:23.430Z,34.00
2023-02-19T17:04:55.069Z,55.20
2023-02-19T17:07:27.503Z,61.80
2023-02-19T17:09:55.416Z,65.70
2023-02-19T17:12:23.922Z,47.80
2023-02-19T17:14:55.808Z,37.60
2023-02-19T17:17:24.895Z,39.30
2023-02-19T17:19:52.900Z,41.00
2023-02-19T17:22:21.034Z,63.00
2023-02-19T17:24:49.294Z,59.20
2023-02-19T17:27:17.410Z,60.80
2023-02-19T17:29:45.445Z,82.80
2023-02-19T17:32:15.630Z,91.40
2023-02-19T17:34:43.857Z,93.00
2023-02-19T17:37:12.142Z,75.80
2023-02-19T17:39:40.229Z,96.80
2023-02-19T17:42:08.761Z,99.90
2023-02-19T17:44:37.008Z,99.90
2023-02-19T17:47:05.367Z,99.90
2023-02-19T17:49:35.212Z,99.90
2023-02-19T17:52:03.186Z,99.90
2023-02-19T17:54:31.236Z,99.90
2023-02-19T17:56:59.253Z,99.90
2023-02-19T17:59:27.280Z,99.90
2023-02-19T18:01:55.749Z,99.90
2023-02-19T18:04:23.814Z,99.90
2023-02-19T18:06:54.071Z,99.90
2023-02-19T18:09:22.966Z,99.90
2023-02-19T18:11:51.073Z,99.90
2023-02-19T18:14:19.167Z,99.90
2023-02-19T18:16:50.006Z,99.90
2023-02-19T18:19:18.574Z,99.90
2023-02-19T18:21:46.672Z,99.90
2023-02-19T18:24:16.353Z,99.90
2023-02-19T18:26:44.735Z,99.90
2023-02-19T18:29:12.834Z,99.90
2023-02-19T18:31:40.963Z,99.90
2023-02-19T18:34:18.402Z,99.90
2023-02-19T18:36:46.941Z,99.90
2023-02-19T18:39:17.242Z,99.90
2023-02-19T18:41:48.969Z,99.90
2023-02-19T18:44:20.192Z,99.90
2023-02-19T18:46:48.528Z,99.90
2023-02-19T18:49:17.431Z,99.90
2023-02-19T18:51:45.529Z,99.90
2023-02-19T18:54:13.637Z,99.90
2023-02-19T18:56:44.220Z,99.90
2023-02-19T18:59:12.914Z,99.90
2023-02-19T19:01:41.503Z,99.90
2023-02-19T19:04:09.679Z,99.90
2023-02-19T19:06:37.730Z,99.90
2023-02-19T19:09:06.901Z,99.90
2023-02-19T19:11:35.185Z,99.90
2023-02-19T19:14:04.620Z,99.90
2023-02-19T19:16:32.614Z,99.90
2023-02-19T19:19:00.729Z,99.90
2023-02-19T19:21:28.717Z,1.00
2023-02-19T19:23:57.234Z,1.00
2023-02-19T19:26:25.316Z,1.00
2023-02-19T19:28:54.474Z,1.00
2023-02-19T19:31:24.810Z,1.00
2023-02-19T19:33:52.994Z,1.00
2023-02-19T19:36:23.476Z,1.00
2023-02-19T19:38:51.547Z,1.00
2023-02-19T19:41:20.797Z,1.00
2023-02-19T19:43:49.005Z,1.00
2023-02-19T19:46:19.925Z,1.00
2023-02-19T19:48:50.753Z,1.00
2023-02-19T19:51:18.815Z,1.00
2023-02-19T19:53:48.672Z,1.00
2023-02-19T19:56:17.098Z,1.00
2023-02-19T19:58:45.471Z,1.00
2023-02-19T20:01:14.996Z,1.00
2023-02-19T20:03:43.061Z,1.00
2023-02-19T20:06:12.442Z,1.00
2023-02-19T20:08:40.412Z,1.00
2023-02-19T20:11:08.541Z,1.00
2023-02-19T20:13:36.625Z,1.00
2023-02-19T20:16:06.095Z,1.00
2023-02-19T20:18:36.017Z,1.00
2023-02-19T20:21:04.488Z,1.00
2023-02-19T20:23:33.863Z,1.00
2023-02-19T20:26:01.938Z,1.00
2023-02-19T20:28:29.964Z,1.00
2023-02-19T20:30:58.002Z,1.00
2023-02-19T20:33:26.148Z,1.00
2023-02-19T20:35:54.347Z,1.00
2023-02-19T20:38:22.433Z,1.00
2023-02-19T20:40:51.850Z,1.00
2023-02-19T20:43:19.900Z,1.00
2023-02-19T20:45:48.404Z,1.00
2023-02-19T20:48:17.422Z,1.00
2023-02-19T20:50:45.768Z,1.00
2023-02-19T20:53:13.845Z,1.00
2023-02-19T20:55:41.930Z,1.00
2023-02-19T20:58:11.347Z,1.00
2023-02-19T21:00:39.350Z,1.00
2023-02-19T21:03:09.020Z,1.00
2023-02-19T21:05:38.579Z,1.00
2023-02-19T21:08:06.979Z,1.00
2023-02-19T21:10:35.057Z,1.00
2023-02-19T21:13:03.388Z,1.00
2023-02-19T21:15:32.829Z,1.00
2023-02-19T21:18:00.931Z,1.00
2023-02-19T21:20:28.958Z,1.00
2023-02-19T21:22:56.992Z,1.00
2023-02-19T21:25:24.981Z,1.00
2023-02-19T21:27:53.043Z,1.00
2023-02-19T21:30:21.207Z,1.00
2023-02-19T21:32:50.648Z,1.00
2023-02-19T21:35:18.660Z,1.00
2023-02-19T21:37:46.705Z,1.00
2023-02-19T21:40:15.079Z,1.00
2023-02-19T21:42:43.088Z,1.00
2023-02-19T21:45:11.321Z,1.00
2023-02-19T21:47:39.342Z,1.00
2023-02-19T21:50:09.922Z,1.00
2023-02-19T21:52:38.045Z,1.00
2023-02-19T21:55:06.729Z,1.00
2023-02-19T21:57:34.795Z,1.00
2023-02-19T22:00:03.272Z,1.00
2023-02-19T22:02:31.308Z,1.00
2023-02-19T22:04:59.614Z,1.00
2023-02-19T22:07:30.488Z,1.00
2023-02-19T22:09:58.739Z,1.00
2023-02-19T22:12:26.964Z,1.00
2023-02-19T22:14:54.989Z,1.00
2023-02-19T22:17:23.036Z,1.00
2023-02-19T22:19:51.178Z,1.00
2023-02-19T22:22:19.406Z,1.00
2023-02-19T22:24:48.784Z,1.00
2023-02-19T22:27:16.766Z,1.00
2023-02-19T22:29:44.751Z,1.00
2023-02-19T22:32:12.839Z,1.00
2023-02-19T22:34:41.913Z,1.00
2023-02-19T22:37:10.274Z,1.00
2023-02-19T22:39:38.666Z,1.00
2023-02-19T22:42:09.946Z,1.00
2023-02-19T22:44:38.373Z,1.00
2023-02-19T22:47:06.451Z,1.00
2023-02-19T22:49:34.606Z,1.00
2023-02-19T22:52:07.512Z,1.00
2023-02-19T22:54:36.083Z,1.00
2023-02-19T22:57:04.332Z,1.00
2023-02-19T22:59:33.759Z,1.00
2023-02-19T23:02:01.810Z,1.00
2023-02-19T23:04:29.869Z,1.00
2023-02-19T23:06:57.936Z,1.00
2023-02-19T23:09:28.166Z,1.00
2023-02-19T23:12:02.703Z,1.00
2023-02-19T23:14:30.739Z,1.00
2023-02-19T23:17:00.501Z,1.00
2023-02-19T23:19:28.911Z,1.00
2023-02-19T23:21:57.255Z,1.00
2023-02-19T23:24:25.362Z,1.00
2023-02-19T23:26:54.718Z,1.00
2023-02-19T23:29:25.347Z,1.00
2023-02-19T23:31:53.758Z,1.00
2023-02-19T23:34:24.342Z,1.00
2023-02-19T23:36:53.003Z,1.00
2023-02-19T23:39:22.672Z,1.00
2023-02-19T23:41:52.766Z,1.00
2023-02-19T23:44:21.901Z,1.00
2023-02-19T23:46:51.057Z,1.00
2023-02-19T23:49:19.790Z,1.00
2023-02-19T23:51:49.174Z,1.00
2023-02-19T23:54:17.234Z,1.00
2023-02-19T23:56:45.289Z,1.00
2023-02-19T23:59:13.796Z,1.00
